Time;durP1;ratioP1;P1;durP2;ratioP2;P2;SDS_P1;SDS_P2;PMS_P1;PMS_P2;Temp;Humidity;BMP_temperature;BMP_pressure;BME280_temperature;BME280_humidity;BME280_pressure;Samples;Min_cycle;Max_cycle;Signal;HPM_P1;HPM_P2
2023/09/03 00:00:12;;;;;;;2.75;2.20;;;;;;;;;;480234;28;1148;-74
2023/09/03 00:00:28;;;;;;;3.92;2.30;;;;;;;;;;480508;28;943;-73
2023/09/03 00:00:44;;;;;;;3.85;2.30;;;;;;;;;;482381;28;1033;-73
2023/09/03 00:00:59;;;;;;;4.40;2.40;;;;;;;;;;480892;28;1194;-73
2023/09/03 00:01:15;;;;;;;4.07;2.55;;;;;;;;;;478225;28;1402;-73
2023/09/03 00:01:30;;;;;;;3.03;2.40;;;;;;;;;;476831;28;1015;-74
2023/09/03 00:01:46;;;;;;;3.20;2.20;;;;;;;;;;478132;28;1322;-74
2023/09/03 00:02:02;;;;;;;3.70;2.10;;;;;;;;;;479664;28;1004;-74
2023/09/03 00:02:18;;;;;;;3.97;2.28;;;;;;;;;;482091;28;1089;-74
2023/09/03 00:02:33;;;;;;;3.57;2.30;;;;;;;;;;481954;28;1061;-73
2023/09/03 00:02:48;;;;;;;3.30;2.30;;;;;;;;;;482114;28;1001;-74
2023/09/03 00:03:04;;;;;;;4.47;2.30;;;;;;;;;;481562;28;1037;-74
2023/09/03 00:03:20;;;;;;;6.07;2.40;;;;;;;;;;483810;28;1263;-73
2023/09/03 00:03:35;;;;;;;5.77;2.40;;;;;;;;;;484648;28;1140;-74
2023/09/03 00:03:51;;;;;;;5.15;2.10;;;;;;;;;;483541;28;1210;-74
2023/09/03 00:04:07;;;;;;;5.10;2.30;;;;;;;;;;484454;28;1120;-73
2023/09/03 00:04:22;;;;;;;3.58;2.30;;;;;;;;;;482917;28;890;-73
2023/09/03 00:04:38;;;;;;;3.38;2.05;;;;;;;;;;478475;28;1283;-73
2023/09/03 00:04:53;;;;;;;4.00;2.10;;;;;;;;;;479325;28;1072;-73
2023/09/03 00:05:09;;;;;;;4.30;2.30;;;;;;;;;;481225;28;1027;-74
2023/09/03 00:05:25;;;;;;;4.53;2.42;;;;;;;;;;482065;28;1015;-73
2023/09/03 00:05:51;;;;;;;4.87;2.30;;;;;;;;;;481697;28;1056;-73
2023/09/03 00:06:07;;;;;;;6.13;2.60;;;;;;;;;;482298;28;1319;-73
2023/09/03 00:06:22;;;;;;;4.03;2.40;;;;;;;;;;479394;28;1397;-73
2023/09/03 00:06:38;;;;;;;3.17;2.22;;;;;;;;;;480557;28;1181;-74
2023/09/03 00:06:53;;;;;;;4.00;2.33;;;;;;;;;;480031;28;1190;-74
2023/09/03 00:07:09;;;;;;;4.30;2.35;;;;;;;;;;480651;28;1216;-74
2023/09/03 00:07:24;;;;;;;4.30;2.30;;;;;;;;;;480154;28;1272;-74
2023/09/03 00:07:40;;;;;;;4.22;2.35;;;;;;;;;;481867;28;923;-73
2023/09/03 00:07:55;;;;;;;4.27;2.40;;;;;;;;;;482097;28;1164;-73
2023/09/03 00:08:11;;;;;;;4.63;2.50;;;;;;;;;;481884;28;2020;-74
2023/09/03 00:08:26;;;;;;;3.70;2.33;;;;;;;;;;482893;28;1091;-74
2023/09/03 00:08:42;;;;;;;3.60;2.20;;;;;;;;;;484171;28;1168;-73
2023/09/03 00:08:57;;;;;;;4.17;2.20;;;;;;;;;;478923;28;1178;-74
2023/09/03 00:09:13;;;;;;;3.83;2.30;;;;;;;;;;477780;28;912;-74
2023/09/03 00:09:28;;;;;;;3.23;2.30;;;;;;;;;;479932;28;975;-74
2023/09/03 00:09:44;;;;;;;3.70;2.30;;;;;;;;;;481900;28;1150;-74
2023/09/03 00:09:59;;;;;;;3.97;2.30;;;;;;;;;;483064;28;1127;-74
2023/09/03 00:10:14;;;;;;;4.10;2.40;;;;;;;;;;484434;28;1111;-74
2023/09/03 00:10:34;;;;;;;4.18;2.20;;;;;;;;;;480939;28;888;-74
2023/09/03 00:10:51;;;;;;;3.47;2.20;;;;;;;;;;482377;28;1252;-74
2023/09/03 00:11:06;;;;;;;4.35;2.30;;;;;;;;;;481801;28;987;-73
2023/09/03 00:11:22;;;;;;;4.53;2.20;;;;;;;;;;481404;28;961;-73
2023/09/03 00:11:37;;;;;;;4.13;2.17;;;;;;;;;;482925;28;1161;-74
2023/09/03 00:11:53;;;;;;;4.83;2.40;;;;;;;;;;483364;28;1077;-74
2023/09/03 00:12:08;;;;;;;5.07;2.53;;;;;;;;;;483438;28;1034;-74
2023/09/03 00:12:24;;;;;;;5.67;2.60;;;;;;;;;;482642;28;1218;-73
2023/09/03 00:12:39;;;;;;;5.88;2.50;;;;;;;;;;483353;28;1182;-73
2023/09/03 00:12:55;;;;;;;3.90;2.30;;;;;;;;;;479874;28;1076;-73
2023/09/03 00:13:10;;;;;;;4.10;2.20;;;;;;;;;;482383;28;1332;-74
2023/09/03 00:13:25;;;;;;;5.90;2.40;;;;;;;;;;480129;28;1211;-73
2023/09/03 00:13:41;;;;;;;6.07;2.50;;;;;;;;;;479276;28;1251;-73
2023/09/03 00:13:57;;;;;;;4.32;2.38;;;;;;;;;;479157;28;1002;-74
2023/09/03 00:14:12;;;;;;;4.10;2.20;;;;;;;;;;479295;28;1248;-74
2023/09/03 00:14:28;;;;;;;4.70;2.30;;;;;;;;;;479265;28;931;-74
2023/09/03 00:14:43;;;;;;;5.65;2.50;;;;;;;;;;479381;28;1081;-74
2023/09/03 00:14:58;;;;;;;6.90;2.57;;;;;;;;;;479626;28;1025;-73
2023/09/03 00:15:14;;;;;;;5.23;2.43;;;;;;;;;;478243;28;1222;-73
2023/09/03 00:15:29;;;;;;;4.30;2.33;;;;;;;;;;477528;28;1151;-73
2023/09/03 00:15:45;;;;;;;4.00;2.30;;;;;;;;;;475788;28;1005;-74
2023/09/03 00:16:01;;;;;;;4.63;2.38;;;;;;;;;;474674;28;1087;-74
2023/09/03 00:16:16;;;;;;;5.18;2.38;;;;;;;;;;473288;28;978;-74
2023/09/03 00:16:32;;;;;;;4.97;2.50;;;;;;;;;;477461;28;1131;-73
2023/09/03 00:16:47;;;;;;;5.90;2.50;;;;;;;;;;478317;28;999;-74
2023/09/03 00:17:02;;;;;;;5.23;2.40;;;;;;;;;;479664;28;1036;-74
2023/09/03 00:17:18;;;;;;;5.60;2.33;;;;;;;;;;479977;28;1146;-73
2023/09/03 00:17:33;;;;;;;6.30;2.35;;;;;;;;;;480992;28;1110;-73
2023/09/03 00:17:49;;;;;;;4.63;2.40;;;;;;;;;;480077;28;1226;-74
2023/09/03 00:18:04;;;;;;;4.28;2.47;;;;;;;;;;478753;28;1056;-73
2023/09/03 00:18:19;;;;;;;4.77;2.40;;;;;;;;;;477507;28;1331;-74
2023/09/03 00:18:37;;;;;;;5.93;2.47;;;;;;;;;;477581;28;1376;-74
2023/09/03 00:18:52;;;;;;;5.28;2.38;;;;;;;;;;476920;28;1093;-73
2023/09/03 00:19:08;;;;;;;3.63;2.30;;;;;;;;;;476594;28;1267;-73
2023/09/03 00:19:24;;;;;;;2.75;2.15;;;;;;;;;;476482;28;1558;-74
2023/09/03 00:19:39;;;;;;;2.85;2.15;;;;;;;;;;476209;28;1267;-75
2023/09/03 00:19:55;;;;;;;3.88;2.60;;;;;;;;;;477282;28;1179;-74
2023/09/03 00:20:11;;;;;;;3.80;2.50;;;;;;;;;;473642;28;1314;-73
2023/09/03 00:20:26;;;;;;;4.57;2.30;;;;;;;;;;477267;28;911;-73
2023/09/03 00:21:05;;;;;;;5.17;2.27;;;;;;;;;;478916;28;1281;-74
2023/09/03 00:21:21;;;;;;;4.25;2.50;;;;;;;;;;480183;28;1192;-73
2023/09/03 00:21:36;;;;;;;4.90;2.50;;;;;;;;;;479891;28;1242;-73
2023/09/03 00:21:52;;;;;;;4.57;2.40;;;;;;;;;;481466;28;958;-73
2023/09/03 00:22:07;;;;;;;3.60;2.30;;;;;;;;;;481988;28;973;-74
2023/09/03 00:22:23;;;;;;;3.53;2.30;;;;;;;;;;482418;28;1081;-74
2023/09/03 00:22:39;;;;;;;5.27;2.30;;;;;;;;;;482249;28;1289;-73
2023/09/03 00:22:54;;;;;;;4.60;2.08;;;;;;;;;;481958;28;1153;-73
2023/09/03 00:23:10;;;;;;;3.58;2.00;;;;;;;;;;481550;28;1312;-74
2023/09/03 00:23:25;;;;;;;3.40;2.20;;;;;;;;;;481884;28;1099;-73
2023/09/03 00:23:41;;;;;;;3.95;2.28;;;;;;;;;;481262;28;1190;-75
2023/09/03 00:23:56;;;;;;;3.67;2.20;;;;;;;;;;479665;28;1085;-73
2023/09/03 00:24:12;;;;;;;2.70;2.10;;;;;;;;;;478611;28;1176;-74
2023/09/03 00:24:27;;;;;;;3.20;2.10;;;;;;;;;;479468;28;923;-74
2023/09/03 00:24:42;;;;;;;4.72;2.38;;;;;;;;;;478719;28;1231;-73
2023/09/03 00:24:58;;;;;;;4.93;2.50;;;;;;;;;;477802;28;948;-74
2023/09/03 00:25:13;;;;;;;4.15;2.42;;;;;;;;;;477124;28;1313;-73
2023/09/03 00:25:35;;;;;;;3.77;2.50;;;;;;;;;;476279;28;1014;-73
2023/09/03 00:25:50;;;;;;;4.57;2.50;;;;;;;;;;480822;28;1101;-73
2023/09/03 00:26:06;;;;;;;4.72;2.55;;;;;;;;;;479560;28;1173;-73
2023/09/03 00:26:24;;;;;;;5.00;2.57;;;;;;;;;;478973;28;1423;-74
2023/09/03 00:26:41;;;;;;;3.47;2.30;;;;;;;;;;477245;28;1381;-73
2023/09/03 00:26:57;;;;;;;3.83;2.30;;;;;;;;;;479824;28;1190;-73
2023/09/03 00:27:12;;;;;;;4.47;2.38;;;;;;;;;;476438;28;1149;-73
2023/09/03 00:27:28;;;;;;;3.77;2.30;;;;;;;;;;476044;28;936;-74
2023/09/03 00:27:43;;;;;;;3.60;2.40;;;;;;;;;;477944;28;1209;-73
2023/09/03 00:27:59;;;;;;;4.05;2.35;;;;;;;;;;478089;28;1274;-73
2023/09/03 00:28:14;;;;;;;3.40;2.23;;;;;;;;;;477210;28;1997;-73
2023/09/03 00:28:30;;;;;;;3.45;2.20;;;;;;;;;;477598;28;1053;-74
2023/09/03 00:28:45;;;;;;;3.60;2.03;;;;;;;;;;477602;28;1204;-74
2023/09/03 00:29:01;;;;;;;3.58;2.10;;;;;;;;;;477173;28;1147;-74
2023/09/03 00:29:16;;;;;;;3.77;2.30;;;;;;;;;;477176;28;1164;-75
2023/09/03 00:29:32;;;;;;;3.43;2.30;;;;;;;;;;476637;28;1505;-73
2023/09/03 00:29:47;;;;;;;3.40;2.30;;;;;;;;;;477196;28;1152;-73
2023/09/03 00:30:03;;;;;;;3.70;2.40;;;;;;;;;;477269;28;1211;-73
2023/09/03 00:30:18;;;;;;;4.00;2.43;;;;;;;;;;476917;28;2174;-73
2023/09/03 00:30:34;;;;;;;4.43;2.40;;;;;;;;;;477028;28;1039;-73
2023/09/03 00:31:03;;;;;;;4.60;2.40;;;;;;;;;;478053;28;895;-74
2023/09/03 00:31:21;;;;;;;3.65;2.40;;;;;;;;;;478815;28;1120;-73
2023/09/03 00:31:36;;;;;;;3.08;2.30;;;;;;;;;;480284;28;1038;-73
2023/09/03 00:31:52;;;;;;;2.95;2.42;;;;;;;;;;481583;28;1082;-73
2023/09/03 00:32:08;;;;;;;3.17;2.60;;;;;;;;;;479610;28;1254;-74
2023/09/03 00:32:23;;;;;;;3.83;2.70;;;;;;;;;;480616;28;1120;-74
2023/09/03 00:32:38;;;;;;;3.60;2.60;;;;;;;;;;479926;28;993;-73
2023/09/03 00:32:54;;;;;;;3.17;2.47;;;;;;;;;;480402;28;887;-73
2023/09/03 00:33:09;;;;;;;3.10;2.40;;;;;;;;;;479405;28;859;-73
2023/09/03 00:33:24;;;;;;;4.13;2.50;;;;;;;;;;481081;28;1107;-73
2023/09/03 00:33:40;;;;;;;6.68;2.70;;;;;;;;;;481067;28;988;-73
2023/09/03 00:33:55;;;;;;;5.90;2.60;;;;;;;;;;479425;28;1247;-74
2023/09/03 00:34:11;;;;;;;3.88;2.50;;;;;;;;;;481878;28;986;-74
2023/09/03 00:34:26;;;;;;;5.03;2.60;;;;;;;;;;479881;28;1094;-73
2023/09/03 00:34:42;;;;;;;5.15;2.47;;;;;;;;;;482338;28;986;-74
2023/09/03 00:34:58;;;;;;;3.70;2.30;;;;;;;;;;482589;28;986;-73
2023/09/03 00:35:14;;;;;;;3.60;2.40;;;;;;;;;;482907;28;1489;-74
2023/09/03 00:35:29;;;;;;;4.13;2.40;;;;;;;;;;482353;28;1106;-73
2023/09/03 00:35:46;;;;;;;3.58;2.30;;;;;;;;;;481655;28;1274;-73
2023/09/03 00:36:04;;;;;;;3.85;2.25;;;;;;;;;;482179;28;920;-73
2023/09/03 00:36:20;;;;;;;4.50;2.30;;;;;;;;;;481600;28;1295;-73
2023/09/03 00:36:35;;;;;;;3.40;2.33;;;;;;;;;;480982;28;1038;-74
2023/09/03 00:36:51;;;;;;;2.90;2.20;;;;;;;;;;481613;28;1270;-73
2023/09/03 00:37:07;;;;;;;3.53;2.30;;;;;;;;;;480810;28;1067;-74
2023/09/03 00:37:22;;;;;;;6.45;2.47;;;;;;;;;;481775;28;1217;-73
2023/09/03 00:37:40;;;;;;;6.23;2.53;;;;;;;;;;481802;28;1080;-73
2023/09/03 00:37:56;;;;;;;4.50;2.70;;;;;;;;;;479677;28;1111;-73
2023/09/03 00:38:11;;;;;;;5.60;2.60;;;;;;;;;;480709;28;994;-73
2023/09/03 00:38:27;;;;;;;4.85;2.50;;;;;;;;;;481566;28;1110;-73
2023/09/03 00:38:43;;;;;;;4.40;2.53;;;;;;;;;;480519;28;1374;-73
2023/09/03 00:38:58;;;;;;;3.50;2.42;;;;;;;;;;478421;28;1198;-74
2023/09/03 00:39:14;;;;;;;3.43;2.47;;;;;;;;;;478182;28;1086;-73
2023/09/03 00:39:29;;;;;;;4.32;2.60;;;;;;;;;;477312;28;932;-73
2023/09/03 00:39:44;;;;;;;3.17;2.50;;;;;;;;;;476568;28;1042;-74
2023/09/03 00:40:01;;;;;;;3.50;2.43;;;;;;;;;;478345;28;1053;-74
2023/09/03 00:40:16;;;;;;;3.75;2.33;;;;;;;;;;480506;28;1173;-73
2023/09/03 00:40:38;;;;;;;3.47;2.30;;;;;;;;;;481081;28;1352;-74
2023/09/03 00:40:54;;;;;;;5.20;2.42;;;;;;;;;;479907;28;1451;-73
2023/09/03 00:41:09;;;;;;;4.63;2.42;;;;;;;;;;480708;28;1277;-73
2023/09/03 00:41:25;;;;;;;3.87;2.40;;;;;;;;;;480847;28;1015;-73
2023/09/03 00:41:40;;;;;;;3.90;2.35;;;;;;;;;;482102;28;966;-73
2023/09/03 00:41:56;;;;;;;3.47;2.37;;;;;;;;;;482337;28;1158;-73
2023/09/03 00:42:11;;;;;;;5.15;2.67;;;;;;;;;;481388;28;1117;-73
2023/09/03 00:42:27;;;;;;;5.43;2.70;;;;;;;;;;481874;28;1102;-73
2023/09/03 00:42:42;;;;;;;3.80;2.47;;;;;;;;;;479974;28;1042;-73
2023/09/03 00:42:57;;;;;;;3.70;2.40;;;;;;;;;;481112;28;1080;-73
2023/09/03 00:43:14;;;;;;;3.60;2.37;;;;;;;;;;479156;28;1202;-74
2023/09/03 00:43:31;;;;;;;3.25;2.40;;;;;;;;;;482196;28;990;-73
2023/09/03 00:43:47;;;;;;;3.35;2.30;;;;;;;;;;482452;28;1058;-73
2023/09/03 00:44:03;;;;;;;3.58;2.20;;;;;;;;;;482197;28;1303;-73
2023/09/03 00:44:18;;;;;;;2.95;2.22;;;;;;;;;;480794;28;1376;-73
2023/09/03 00:44:34;;;;;;;3.40;2.50;;;;;;;;;;481074;28;1260;-73
2023/09/03 00:44:49;;;;;;;4.20;2.72;;;;;;;;;;481485;28;1118;-73
2023/09/03 00:45:05;;;;;;;4.40;2.50;;;;;;;;;;479780;28;1206;-73
2023/09/03 00:45:21;;;;;;;4.22;2.40;;;;;;;;;;481248;28;1214;-73
2023/09/03 00:45:36;;;;;;;3.75;2.50;;;;;;;;;;479828;28;1273;-73
2023/09/03 00:45:53;;;;;;;3.43;2.53;;;;;;;;;;479452;28;1126;-73
2023/09/03 00:46:08;;;;;;;3.25;2.35;;;;;;;;;;480139;28;1149;-73
2023/09/03 00:46:24;;;;;;;3.53;2.30;;;;;;;;;;478208;28;1108;-74
2023/09/03 00:46:42;;;;;;;3.90;2.50;;;;;;;;;;480981;28;983;-73
2023/09/03 00:46:58;;;;;;;3.80;2.45;;;;;;;;;;481428;28;1010;-73
2023/09/03 00:47:13;;;;;;;3.33;2.53;;;;;;;;;;480374;28;1301;-73
2023/09/03 00:47:30;;;;;;;4.23;2.67;;;;;;;;;;481129;28;931;-73
2023/09/03 00:47:47;;;;;;;4.75;2.63;;;;;;;;;;480939;28;1013;-74
2023/09/03 00:48:03;;;;;;;4.95;2.50;;;;;;;;;;482294;28;2259;-73
2023/09/03 00:48:28;;;;;;;5.00;2.55;;;;;;;;;;482267;28;904;-74
2023/09/03 00:48:44;;;;;;;5.03;2.55;;;;;;;;;;481847;28;980;-73
2023/09/03 00:49:00;;;;;;;4.88;2.67;;;;;;;;;;481945;28;934;-73
2023/09/03 00:49:20;;;;;;;4.17;2.60;;;;;;;;;;482369;28;1100;-73
2023/09/03 00:49:42;;;;;;;3.92;2.60;;;;;;;;;;482002;28;1009;-73
2023/09/03 00:49:59;;;;;;;4.72;2.72;;;;;;;;;;479643;28;932;-73
2023/09/03 00:50:14;;;;;;;5.18;2.75;;;;;;;;;;480372;28;1302;-73
2023/09/03 00:50:30;;;;;;;5.07;2.58;;;;;;;;;;482448;28;1094;-73
2023/09/03 00:50:47;;;;;;;5.53;2.53;;;;;;;;;;479984;28;995;-73
2023/09/03 00:51:06;;;;;;;4.90;2.50;;;;;;;;;;480208;28;1138;-73
2023/09/03 00:51:22;;;;;;;5.30;2.50;;;;;;;;;;479270;28;1373;-73
2023/09/03 00:51:39;;;;;;;5.22;2.63;;;;;;;;;;477648;28;1322;-73
2023/09/03 00:51:55;;;;;;;5.57;2.80;;;;;;;;;;478864;28;1085;-73
2023/09/03 00:52:11;;;;;;;6.00;2.55;;;;;;;;;;479216;28;1469;-73
2023/09/03 00:52:27;;;;;;;4.68;2.47;;;;;;;;;;479617;28;986;-73
2023/09/03 00:52:43;;;;;;;3.03;2.53;;;;;;;;;;477878;28;1102;-73
2023/09/03 00:52:58;;;;;;;2.87;2.57;;;;;;;;;;481905;28;1081;-73
2023/09/03 00:53:16;;;;;;;3.83;2.70;;;;;;;;;;483335;28;954;-73
2023/09/03 00:53:34;;;;;;;4.05;2.80;;;;;;;;;;484175;28;1182;-73
2023/09/03 00:53:54;;;;;;;3.35;2.60;;;;;;;;;;483417;28;1219;-73
2023/09/03 00:54:09;;;;;;;3.92;2.60;;;;;;;;;;482161;28;1548;-73
2023/09/03 00:54:25;;;;;;;5.00;2.70;;;;;;;;;;478670;28;1133;-73
2023/09/03 00:54:41;;;;;;;4.63;2.60;;;;;;;;;;480109;28;1266;-73
2023/09/03 00:54:57;;;;;;;4.43;2.60;;;;;;;;;;479799;28;978;-73
2023/09/03 00:55:13;;;;;;;5.47;2.58;;;;;;;;;;479988;28;962;-73
2023/09/03 00:55:29;;;;;;;5.90;2.60;;;;;;;;;;478023;28;1244;-73
2023/09/03 00:55:45;;;;;;;4.85;2.63;;;;;;;;;;478575;28;1189;-73
2023/09/03 00:56:00;;;;;;;4.53;2.60;;;;;;;;;;475922;28;1266;-73
2023/09/03 00:56:16;;;;;;;4.10;2.63;;;;;;;;;;477463;28;881;-73
2023/09/03 00:56:32;;;;;;;4.33;2.67;;;;;;;;;;475980;28;1117;-74
2023/09/03 00:56:49;;;;;;;5.22;2.60;;;;;;;;;;475615;28;1480;-73
2023/09/03 00:57:05;;;;;;;3.80;2.70;;;;;;;;;;476333;28;1049;-73
2023/09/03 00:57:20;;;;;;;4.87;2.77;;;;;;;;;;476750;28;1043;-73
2023/09/03 00:57:36;;;;;;;4.55;2.75;;;;;;;;;;476701;28;1382;-73
2023/09/03 00:57:52;;;;;;;4.17;2.80;;;;;;;;;;477146;28;961;-74
2023/09/03 00:58:08;;;;;;;4.57;2.70;;;;;;;;;;477906;28;1081;-73
2023/09/03 00:58:24;;;;;;;4.23;2.60;;;;;;;;;;478350;28;966;-73
2023/09/03 00:58:40;;;;;;;4.60;2.60;;;;;;;;;;479146;28;1159;-73
2023/09/03 00:58:56;;;;;;;5.28;2.70;;;;;;;;;;480140;28;1092;-73
2023/09/03 00:59:11;;;;;;;5.70;2.67;;;;;;;;;;479979;28;962;-73
2023/09/03 00:59:28;;;;;;;4.60;2.58;;;;;;;;;;481439;28;1122;-73
2023/09/03 00:59:45;;;;;;;3.17;2.60;;;;;;;;;;483124;28;1114;-74
2023/09/03 01:00:04;;;;;;;3.95;2.60;;;;;;;;;;483259;28;981;-73
2023/09/03 01:00:20;;;;;;;3.90;2.50;;;;;;;;;;492414;28;1668;-73
2023/09/03 01:00:36;;;;;;;4.32;2.47;;;;;;;;;;482621;28;1031;-73
2023/09/03 01:00:52;;;;;;;4.53;2.53;;;;;;;;;;479752;28;1275;-73
2023/09/03 01:01:09;;;;;;;3.95;2.60;;;;;;;;;;480231;28;1109;-74
2023/09/03 01:01:24;;;;;;;3.70;2.55;;;;;;;;;;478900;28;1148;-73
2023/09/03 01:01:40;;;;;;;5.00;2.70;;;;;;;;;;477145;28;1265;-74
2023/09/03 01:01:55;;;;;;;5.97;2.85;;;;;;;;;;477323;28;1105;-73
2023/09/03 01:02:14;;;;;;;5.17;2.70;;;;;;;;;;477763;28;1101;-74
2023/09/03 01:02:30;;;;;;;5.95;2.80;;;;;;;;;;476821;28;1283;-73
2023/09/03 01:02:47;;;;;;;5.45;2.80;;;;;;;;;;478141;28;1187;-74
2023/09/03 01:03:04;;;;;;;4.78;2.70;;;;;;;;;;478821;28;1108;-73
2023/09/03 01:03:20;;;;;;;3.90;2.80;;;;;;;;;;477863;28;1489;-73
2023/09/03 01:03:35;;;;;;;3.15;2.70;;;;;;;;;;478566;28;1359;-73
2023/09/03 01:03:51;;;;;;;2.93;2.30;;;;;;;;;;478820;28;1042;-73
2023/09/03 01:04:06;;;;;;;3.05;2.10;;;;;;;;;;478970;28;960;-73
2023/09/03 01:04:22;;;;;;;3.03;2.20;;;;;;;;;;479271;28;1045;-74
2023/09/03 01:04:37;;;;;;;2.97;2.20;;;;;;;;;;477541;28;1121;-73
2023/09/03 01:04:53;;;;;;;2.53;2.20;;;;;;;;;;477262;28;1201;-73
2023/09/03 01:05:08;;;;;;;2.20;2.00;;;;;;;;;;478022;28;1165;-73
2023/09/03 01:05:23;;;;;;;2.10;1.90;;;;;;;;;;477764;28;1235;-73
2023/09/03 01:05:39;;;;;;;2.30;2.10;;;;;;;;;;475684;28;1183;-73
2023/09/03 01:05:54;;;;;;;2.70;2.20;;;;;;;;;;476046;28;990;-73
2023/09/03 01:06:10;;;;;;;2.40;2.10;;;;;;;;;;477010;28;951;-73
2023/09/03 01:06:26;;;;;;;3.27;2.10;;;;;;;;;;478687;28;1136;-73
2023/09/03 01:06:41;;;;;;;4.70;2.40;;;;;;;;;;479247;28;1148;-73
2023/09/03 01:06:57;;;;;;;4.80;2.53;;;;;;;;;;479115;28;1342;-73
2023/09/03 01:07:14;;;;;;;3.67;2.58;;;;;;;;;;479736;28;952;-73
2023/09/03 01:07:30;;;;;;;2.90;2.40;;;;;;;;;;479738;28;1317;-73
2023/09/03 01:07:47;;;;;;;3.33;2.20;;;;;;;;;;481971;28;1273;-73
2023/09/03 01:08:03;;;;;;;2.80;2.05;;;;;;;;;;481237;28;1305;-73
2023/09/03 01:08:18;;;;;;;2.30;2.00;;;;;;;;;;477393;28;1945;-73
2023/09/03 01:08:35;;;;;;;2.63;2.23;;;;;;;;;;475689;28;1031;-73
2023/09/03 01:08:52;;;;;;;3.60;2.50;;;;;;;;;;475167;28;1149;-74
2023/09/03 01:09:07;;;;;;;3.13;2.50;;;;;;;;;;475214;28;962;-74
2023/09/03 01:09:23;;;;;;;3.00;2.47;;;;;;;;;;477415;28;1145;-74
2023/09/03 01:09:40;;;;;;;3.97;2.40;;;;;;;;;;481852;28;1130;-74
2023/09/03 01:09:56;;;;;;;6.05;2.50;;;;;;;;;;480764;28;920;-73
2023/09/03 01:10:12;;;;;;;5.22;2.70;;;;;;;;;;480722;28;1030;-73
2023/09/03 01:10:37;;;;;;;4.85;2.80;;;;;;;;;;480098;28;912;-74
2023/09/03 01:11:08;;;;;;;4.50;2.80;;;;;;;;;;479343;28;1233;-74
2023/09/03 01:11:32;;;;;;;4.20;2.60;;;;;;;;;;480538;28;1099;-74
2023/09/03 01:12:00;;;;;;;5.35;2.67;;;;;;;;;;480097;28;920;-73
2023/09/03 01:12:24;;;;;;;5.03;2.67;;;;;;;;;;479206;28;1151;-73
2023/09/03 01:12:52;;;;;;;3.33;2.67;;;;;;;;;;476801;28;1154;-73
2023/09/03 01:13:40;;;;;;;4.60;3.00;;;;;;;;;;476241;28;1109;-73
2023/09/03 01:14:30;;;;;;;3.50;2.50;;;;;;;;;;469746;29;1303;-73
2023/09/03 01:15:01;;;;;;;5.13;2.63;;;;;;;;;;478036;28;1268;-73
2023/09/03 01:15:30;;;;;;;5.18;2.80;;;;;;;;;;483313;28;896;-73
2023/09/03 01:15:50;;;;;;;4.22;2.90;;;;;;;;;;481230;28;1247;-73
2023/09/03 01:16:12;;;;;;;4.32;2.80;;;;;;;;;;483868;28;1057;-74
2023/09/03 01:16:54;;;;;;;4.30;2.75;;;;;;;;;;482390;28;1160;-73
2023/09/03 01:17:29;;;;;;;5.78;2.63;;;;;;;;;;481912;28;979;-73
2023/09/03 01:17:51;;;;;;;6.57;3.10;;;;;;;;;;480915;28;1281;-74
2023/09/03 01:18:13;;;;;;;6.75;3.00;;;;;;;;;;483431;28;994;-73
2023/09/03 01:18:30;;;;;;;4.10;2.70;;;;;;;;;;483583;28;1139;-74
2023/09/03 01:18:47;;;;;;;3.67;2.67;;;;;;;;;;484531;28;1009;-74
2023/09/03 01:19:20;;;;;;;3.60;2.60;;;;;;;;;;481529;28;1097;-73
2023/09/03 01:19:54;;;;;;;4.32;2.90;;;;;;;;;;482809;28;974;-74
2023/09/03 01:20:14;;;;;;;4.20;3.00;;;;;;;;;;481470;28;1271;-74
2023/09/03 01:20:37;;;;;;;4.53;2.88;;;;;;;;;;480030;28;1207;-73
2023/09/03 01:21:43;;;;;;;3.90;2.90;;;;;;;;;;479615;28;1307;-73
2023/09/03 01:22:13;;;;;;;3.38;2.80;;;;;;;;;;473120;28;1107;-73
2023/09/03 01:22:47;;;;;;;4.68;3.03;;;;;;;;;;474742;28;905;-73
2023/09/03 01:23:21;;;;;;;5.78;3.13;;;;;;;;;;481325;28;1176;-73
2023/09/03 01:23:57;;;;;;;5.32;3.10;;;;;;;;;;479460;28;1167;-74
2023/09/03 01:24:27;;;;;;;3.53;2.75;;;;;;;;;;478144;28;1054;-73
2023/09/03 01:25:15;;;;;;;4.13;2.90;;;;;;;;;;477753;28;1128;-73
2023/09/03 01:25:48;;;;;;;3.78;2.95;;;;;;;;;;476267;28;1402;-73
2023/09/03 01:26:27;;;;;;;4.18;2.88;;;;;;;;;;478400;28;951;-73
2023/09/03 01:26:48;;;;;;;4.35;2.88;;;;;;;;;;479362;28;1445;-73
2023/09/03 01:27:15;;;;;;;4.10;3.00;;;;;;;;;;477596;28;1123;-73
2023/09/03 01:28:11;;;;;;;2.85;2.40;;;;;;;;;;478861;28;1623;-73
2023/09/03 01:28:30;;;;;;;2.97;2.17;;;;;;;;;;477930;28;1057;-73
2023/09/03 01:28:47;;;;;;;2.40;2.10;;;;;;;;;;479169;28;1144;-73
2023/09/03 01:29:04;;;;;;;2.47;2.20;;;;;;;;;;483835;28;1295;-73
2023/09/03 01:29:20;;;;;;;3.80;2.53;;;;;;;;;;485838;28;1604;-73
2023/09/03 01:29:40;;;;;;;3.67;2.40;;;;;;;;;;486917;28;1036;-73
2023/09/03 01:29:57;;;;;;;3.13;2.30;;;;;;;;;;484841;28;1169;-73
2023/09/03 01:30:15;;;;;;;2.60;2.38;;;;;;;;;;484444;28;1199;-73
2023/09/03 01:30:31;;;;;;;2.65;2.45;;;;;;;;;;483752;28;1124;-73
2023/09/03 01:30:48;;;;;;;2.75;2.53;;;;;;;;;;483205;28;1038;-73
2023/09/03 01:31:08;;;;;;;4.47;2.88;;;;;;;;;;484469;28;1043;-74
2023/09/03 01:31:24;;;;;;;4.05;3.00;;;;;;;;;;483305;28;1376;-74
2023/09/03 01:31:41;;;;;;;3.53;2.83;;;;;;;;;;483244;28;1176;-73
2023/09/03 01:31:59;;;;;;;4.57;2.85;;;;;;;;;;484152;28;1083;-73
2023/09/03 01:32:18;;;;;;;3.80;2.88;;;;;;;;;;485280;28;1522;-73
2023/09/03 01:32:35;;;;;;;3.22;2.92;;;;;;;;;;484036;28;1007;-74
2023/09/03 01:32:52;;;;;;;3.70;2.92;;;;;;;;;;481778;28;1238;-73
2023/09/03 01:33:08;;;;;;;4.60;2.90;;;;;;;;;;481875;28;996;-73
2023/09/03 01:33:26;;;;;;;2.80;2.55;;;;;;;;;;481922;28;1004;-73
2023/09/03 01:33:44;;;;;;;2.58;2.30;;;;;;;;;;481811;28;1073;-73
2023/09/03 01:34:03;;;;;;;2.78;2.50;;;;;;;;;;481585;28;950;-73
2023/09/03 01:34:20;;;;;;;2.90;2.60;;;;;;;;;;484455;28;1265;-73
2023/09/03 01:34:36;;;;;;;3.45;2.55;;;;;;;;;;483992;28;975;-73
2023/09/03 01:34:54;;;;;;;4.93;2.60;;;;;;;;;;484429;28;1162;-73
2023/09/03 01:35:10;;;;;;;5.18;2.63;;;;;;;;;;484095;28;1405;-73
2023/09/03 01:35:27;;;;;;;3.80;2.60;;;;;;;;;;484212;28;1175;-73
2023/09/03 01:35:44;;;;;;;2.90;2.47;;;;;;;;;;482810;28;1244;-73
2023/09/03 01:36:00;;;;;;;2.83;2.55;;;;;;;;;;484011;28;995;-74
2023/09/03 01:36:16;;;;;;;4.38;3.00;;;;;;;;;;482537;28;1185;-73
2023/09/03 01:36:33;;;;;;;5.20;3.13;;;;;;;;;;483806;28;1072;-74
2023/09/03 01:36:50;;;;;;;5.82;3.15;;;;;;;;;;482901;28;1205;-73
2023/09/03 01:37:08;;;;;;;4.72;3.13;;;;;;;;;;483093;28;1206;-73
2023/09/03 01:37:23;;;;;;;4.45;3.10;;;;;;;;;;481845;28;924;-73
2023/09/03 01:37:39;;;;;;;3.90;2.87;;;;;;;;;;480374;28;1154;-74
2023/09/03 01:37:54;;;;;;;4.07;3.00;;;;;;;;;;481917;28;896;-73
2023/09/03 01:38:10;;;;;;;3.80;2.90;;;;;;;;;;480955;28;895;-73
2023/09/03 01:38:26;;;;;;;3.92;2.90;;;;;;;;;;481385;28;1135;-74
2023/09/03 01:38:42;;;;;;;4.20;3.17;;;;;;;;;;479079;28;1145;-74
2023/09/03 01:39:03;;;;;;;4.95;3.28;;;;;;;;;;479828;28;1268;-74
2023/09/03 01:39:20;;;;;;;4.15;3.20;;;;;;;;;;480326;28;1312;-74
2023/09/03 01:39:36;;;;;;;6.10;3.28;;;;;;;;;;480425;28;1092;-73
2023/09/03 01:39:52;;;;;;;5.65;3.30;;;;;;;;;;482255;28;1174;-73
2023/09/03 01:40:09;;;;;;;4.40;3.10;;;;;;;;;;478906;28;1967;-74
2023/09/03 01:40:24;;;;;;;3.88;3.00;;;;;;;;;;481085;28;935;-73
2023/09/03 01:40:40;;;;;;;4.43;3.10;;;;;;;;;;480986;28;1197;-73
2023/09/03 01:40:55;;;;;;;4.10;2.90;;;;;;;;;;482143;28;1110;-73
2023/09/03 01:41:13;;;;;;;3.63;2.67;;;;;;;;;;481929;28;1036;-74
2023/09/03 01:41:31;;;;;;;3.90;2.60;;;;;;;;;;481271;28;1246;-73
2023/09/03 01:41:47;;;;;;;4.43;2.75;;;;;;;;;;481864;28;1121;-73
2023/09/03 01:42:02;;;;;;;4.90;3.00;;;;;;;;;;482910;28;1116;-74
2023/09/03 01:42:18;;;;;;;4.22;3.00;;;;;;;;;;482756;28;948;-73
2023/09/03 01:42:33;;;;;;;3.07;2.70;;;;;;;;;;473125;28;1190;-73
2023/09/03 01:42:49;;;;;;;3.63;2.90;;;;;;;;;;472870;28;1460;-73
2023/09/03 01:43:04;;;;;;;3.88;3.10;;;;;;;;;;470725;29;1420;-73
2023/09/03 01:43:20;;;;;;;3.70;2.90;;;;;;;;;;468604;29;1292;-73
2023/09/03 01:43:35;;;;;;;3.38;2.78;;;;;;;;;;470319;28;1109;-73
2023/09/03 01:43:51;;;;;;;4.23;2.60;;;;;;;;;;477361;28;1319;-73
2023/09/03 01:44:07;;;;;;;4.47;2.70;;;;;;;;;;477831;28;1052;-73
2023/09/03 01:44:23;;;;;;;3.53;2.97;;;;;;;;;;478289;28;1332;-73
2023/09/03 01:44:39;;;;;;;5.17;3.10;;;;;;;;;;477770;28;1059;-73
2023/09/03 01:44:54;;;;;;;5.30;3.20;;;;;;;;;;477738;28;994;-74
2023/09/03 01:45:10;;;;;;;4.70;3.30;;;;;;;;;;477776;28;994;-73
2023/09/03 01:45:39;;;;;;;5.20;3.33;;;;;;;;;;478786;28;1030;-73
2023/09/03 01:45:54;;;;;;;4.97;3.30;;;;;;;;;;481975;28;1309;-73
2023/09/03 01:46:19;;;;;;;3.93;3.00;;;;;;;;;;482573;28;1089;-73
2023/09/03 01:46:43;;;;;;;4.93;3.30;;;;;;;;;;479415;28;1217;-73
2023/09/03 01:47:10;;;;;;;7.85;3.30;;;;;;;;;;481969;28;1115;-73
2023/09/03 01:47:48;;;;;;;4.57;3.40;;;;;;;;;;480160;28;1134;-73
2023/09/03 01:48:24;;;;;;;4.80;3.65;;;;;;;;;;480369;28;1008;-73
2023/09/03 01:48:51;;;;;;;5.07;3.53;;;;;;;;;;480520;28;1273;-73
2023/09/03 01:49:35;;;;;;;7.68;3.70;;;;;;;;;;480066;28;1185;-74
2023/09/03 01:50:05;;;;;;;5.82;3.53;;;;;;;;;;480439;28;1216;-73
2023/09/03 01:50:39;;;;;;;5.93;3.60;;;;;;;;;;480429;28;1484;-74
2023/09/03 01:51:29;;;;;;;4.88;3.70;;;;;;;;;;480917;28;1117;-73
2023/09/03 01:51:45;;;;;;;5.15;4.30;;;;;;;;;;475711;28;1057;-73
2023/09/03 01:52:38;;;;;;;6.70;4.53;;;;;;;;;;476672;28;1125;-74
2023/09/03 01:53:21;;;;;;;4.32;3.83;;;;;;;;;;478132;28;1200;-73
2023/09/03 01:53:48;;;;;;;6.45;3.95;;;;;;;;;;478593;28;1094;-73